Lucinda, Pennsylvania
Current Conditions -  °F | °C
As of 10:53 PM on Saturday 24 Jan 2015 (Local Time) from KDUJ Reporting Station
Haze Haze  
Wind Chill: 16°   Ceiling: 300
Heat Index: 27°   Visibility: 1.7mi
Dew Point: 26°   Wind: 14mph
Humidity: 96%   Direction: 260°W
Pressure: 29.57"   Gusts: NA
Location:  41.31°N, 79.37°W
Report Text: KDUJ 250353Z AUTO 26012KT 1 3/4SM BR OVC003 M03/M03 A2957 RMK AO2 SLP032 I1002 T10281033
Loading
Personal Weather Stations






























Interactive Weather Map New forecast layout! Learn more

10-Day Weather Forecast

Advertisements
Track Severe Weather on mobile